Time;durP1;ratioP1;P1;durP2;ratioP2;P2;SDS_P1;SDS_P2;PMS_P1;PMS_P2;Temp;Humidity;BMP_temperature;BMP_pressure;BME280_temperature;BME280_humidity;BME280_pressure;Samples;Min_cycle;Max_cycle;Signal;HPM_P1;HPM_P2
2022/06/23 00:00:56;;;;;;;3.93;3.13;;;14.80;99.90;;;;;;5112307;28;20199;-66
2022/06/23 00:03:24;;;;;;;3.37;3.03;;;14.80;99.90;;;;;;5107338;28;20607;-66
2022/06/23 00:05:58;;;;;;;5.33;3.20;;;14.90;99.90;;;;;;5111250;28;20223;-66
2022/06/23 00:08:25;;;;;;;4.37;3.20;;;14.90;99.90;;;;;;5111400;28;20222;-65
2022/06/23 00:10:55;;;;;;;4.50;3.80;;;14.90;99.90;;;;;;5110376;28;20572;-66
2022/06/23 00:13:26;;;;;;;5.40;3.60;;;14.90;99.90;;;;;;5110146;28;20300;-68
2022/06/23 00:15:57;;;;;;;4.30;3.37;;;14.90;99.90;;;;;;5111111;28;20200;-66
2022/06/23 00:18:26;;;;;;;5.17;3.47;;;14.90;99.90;;;;;;5111126;28;20556;-65
2022/06/23 00:20:57;;;;;;;4.17;3.60;;;14.90;99.90;;;;;;5110826;28;20258;-66
2022/06/23 00:23:27;;;;;;;4.50;3.37;;;14.90;99.90;;;;;;5111304;28;20191;-65
2022/06/23 00:25:59;;;;;;;6.97;3.77;;;14.90;99.90;;;;;;5111956;28;20229;-66
2022/06/23 00:28:29;;;;;;;6.70;3.90;;;14.90;99.90;;;;;;5111068;28;20195;-65
2022/06/23 00:30:58;;;;;;;6.93;3.97;;;14.90;99.90;;;;;;5111793;28;20223;-66
2022/06/23 00:33:28;;;;;;;8.93;4.10;;;14.90;99.90;;;;;;5114701;27;20226;-67
2022/06/23 00:35:57;;;;;;;8.03;4.13;;;14.90;99.90;;;;;;5115373;27;20244;-66
2022/06/23 00:38:29;;;;;;;6.73;3.70;;;15.00;99.90;;;;;;5112980;27;20203;-68
2022/06/23 00:40:58;;;;;;;5.90;3.97;;;15.00;99.90;;;;;;5114363;27;20202;-68
2022/06/23 00:43:27;;;;;;;6.90;3.67;;;14.90;99.90;;;;;;5114941;27;20286;-66
2022/06/23 00:46:00;;;;;;;6.73;4.10;;;15.00;99.90;;;;;;5115187;27;20265;-67
2022/06/23 00:48:32;;;;;;;6.73;4.17;;;14.90;99.90;;;;;;5114866;27;20195;-67
2022/06/23 00:51:07;;;;;;;6.67;4.00;;;14.90;99.90;;;;;;5115293;27;20252;-67
2022/06/23 00:53:39;;;;;;;11.23;4.13;;;14.90;99.90;;;;;;5114786;27;20577;-66
2022/06/23 00:56:18;;;;;;;7.50;4.30;;;14.90;99.90;;;;;;5114958;27;20710;-66
2022/06/23 00:58:50;;;;;;;7.13;4.37;;;14.90;99.90;;;;;;5115035;27;20217;-66
2022/06/23 01:01:37;;;;;;;9.40;4.33;;;14.80;99.90;;;;;;5113690;27;20195;-67
2022/06/23 01:04:09;;;;;;;8.07;4.33;;;14.90;99.90;;;;;;5113693;27;20260;-67
2022/06/23 01:06:41;;;;;;;13.43;4.90;;;14.80;99.90;;;;;;5114413;27;20187;-65
2022/06/23 01:09:19;;;;;;;6.70;4.40;;;14.80;99.90;;;;;;5114668;27;20199;-66
2022/06/23 01:11:50;;;;;;;6.23;4.90;;;14.90;99.90;;;;;;5114781;27;20215;-67
2022/06/23 01:14:28;;;;;;;9.87;4.73;;;14.90;99.90;;;;;;5115763;27;20230;-65
2022/06/23 01:17:02;;;;;;;9.33;5.50;;;14.90;99.90;;;;;;5114257;27;20203;-67
2022/06/23 01:20:02;;;;;;;10.23;4.93;;;14.90;99.90;;;;;;5114119;27;20227;-67
2022/06/23 01:22:45;;;;;;;7.60;4.73;;;14.80;99.90;;;;;;5111321;27;20188;-65
2022/06/23 01:25:30;;;;;;;8.67;5.43;;;14.80;99.90;;;;;;5112794;27;20233;-66
2022/06/23 01:28:03;;;;;;;7.20;5.33;;;14.80;99.90;;;;;;5113940;27;20196;-67
2022/06/23 01:30:37;;;;;;;10.77;5.23;;;14.80;99.90;;;;;;5114121;27;20188;-67
2022/06/23 01:33:19;;;;;;;11.63;5.77;;;14.70;99.90;;;;;;5115299;27;20228;-66
2022/06/23 01:35:53;;;;;;;10.20;6.03;;;14.60;99.90;;;;;;5114019;27;20222;-65
2022/06/23 01:38:26;;;;;;;10.93;6.97;;;14.50;99.90;;;;;;5123658;27;20192;-67
2022/06/23 01:40:56;;;;;;;12.77;6.13;;;14.50;99.90;;;;;;5114683;28;20191;-67
2022/06/23 01:43:29;;;;;;;10.83;6.30;;;14.50;99.90;;;;;;5113866;28;20194;-66
2022/06/23 01:46:00;;;;;;;7.17;5.33;;;14.50;99.90;;;;;;5113836;28;20198;-68
2022/06/23 01:48:52;;;;;;;12.53;6.80;;;14.50;99.90;;;;;;5114481;28;20188;-69
2022/06/23 01:51:25;;;;;;;10.60;5.77;;;14.50;99.90;;;;;;5114503;28;20294;-68
2022/06/23 01:53:54;;;;;;;12.23;6.10;;;14.50;99.90;;;;;;5114636;28;20211;-67
2022/06/23 01:56:30;;;;;;;11.83;6.53;;;14.50;99.90;;;;;;5114292;28;20655;-67
2022/06/23 01:59:10;;;;;;;6.97;5.73;;;14.50;99.90;;;;;;5132700;27;20300;-68
2022/06/23 02:01:46;;;;;;;12.23;6.37;;;14.50;99.90;;;;;;5134588;27;20183;-69
2022/06/23 02:04:19;;;;;;;10.70;6.57;;;14.60;99.90;;;;;;5127051;27;20195;-68
2022/06/23 02:06:52;;;;;;;11.73;6.17;;;14.60;99.90;;;;;;5110191;28;20207;-69
2022/06/23 02:09:25;;;;;;;8.53;6.43;;;14.60;99.90;;;;;;5110905;27;20452;-69
2022/06/23 02:11:53;;;;;;;8.83;6.47;;;14.60;99.90;;;;;;5109635;28;20203;-66
2022/06/23 02:14:59;;;;;;;11.03;6.20;;;14.60;99.90;;;;;;5092980;28;20204;-65
2022/06/23 02:17:38;;;;;;;9.10;6.63;;;14.60;99.90;;;;;;5083838;28;20246;-66
2022/06/23 02:20:21;;;;;;;11.37;6.00;;;14.60;99.90;;;;;;5093151;28;20271;-66
2022/06/23 02:22:49;;;;;;;7.87;6.23;;;14.60;99.90;;;;;;5123412;27;20207;-66
2022/06/23 02:25:21;;;;;;;7.63;5.47;;;14.70;99.90;;;;;;5134369;27;20199;-66
2022/06/23 02:27:53;;;;;;;8.03;5.63;;;14.70;99.90;;;;;;5134541;27;20614;-66
2022/06/23 02:30:29;;;;;;;9.27;5.90;;;14.70;99.90;;;;;;5134310;27;20191;-66
2022/06/23 02:33:04;;;;;;;10.00;6.03;;;14.80;99.90;;;;;;5096070;27;20322;-69
2022/06/23 02:35:35;;;;;;;9.40;6.00;;;14.80;99.90;;;;;;5114309;27;20207;-67
2022/06/23 02:38:08;;;;;;;9.03;6.07;;;14.80;99.90;;;;;;5113562;28;20187;-66
2022/06/23 02:40:39;;;;;;;7.93;5.23;;;14.80;99.90;;;;;;5113599;28;20271;-66
2022/06/23 02:43:16;;;;;;;9.50;5.73;;;14.80;99.90;;;;;;5106771;28;20196;-66
2022/06/23 02:46:15;;;;;;;10.00;5.57;;;14.80;99.90;;;;;;5120324;27;20191;-67
2022/06/23 02:49:02;;;;;;;8.90;5.20;;;14.80;99.90;;;;;;5134167;27;20187;-66
2022/06/23 02:51:45;;;;;;;6.87;5.07;;;14.80;99.90;;;;;;5126797;27;20209;-65
2022/06/23 02:54:33;;;;;;;7.97;5.30;;;14.90;99.90;;;;;;5112293;27;20261;-67
2022/06/23 02:57:13;;;;;;;7.00;5.13;;;14.90;99.90;;;;;;5115553;27;20291;-67
2022/06/23 02:59:46;;;;;;;8.77;5.20;;;15.00;99.90;;;;;;5133957;27;20194;-65
2022/06/23 03:02:21;;;;;;;7.13;4.73;;;15.00;99.90;;;;;;5117143;27;21583;-65
2022/06/23 03:04:52;;;;;;;8.90;4.93;;;15.00;99.90;;;;;;5092863;28;20538;-65
2022/06/23 03:07:26;;;;;;;9.63;4.80;;;15.00;99.90;;;;;;5092548;28;20663;-67
2022/06/23 03:10:04;;;;;;;7.70;4.70;;;15.10;99.90;;;;;;5114848;27;20294;-67
2022/06/23 03:12:38;;;;;;;12.83;4.87;;;15.10;99.90;;;;;;5133550;27;20203;-66
2022/06/23 03:15:13;;;;;;;9.83;4.70;;;15.10;99.90;;;;;;5121500;27;20227;-67
2022/06/23 03:17:47;;;;;;;6.77;4.20;;;15.10;99.90;;;;;;5113253;28;20246;-68
2022/06/23 03:20:20;;;;;;;6.93;4.17;;;15.20;99.90;;;;;;5112387;28;20615;-65
2022/06/23 03:22:53;;;;;;;6.20;4.30;;;15.10;99.90;;;;;;5131691;27;20191;-66
2022/06/23 03:25:25;;;;;;;6.20;3.80;;;15.20;99.90;;;;;;5120303;27;20199;-67
2022/06/23 03:27:58;;;;;;;6.07;4.23;;;15.10;99.90;;;;;;5112825;28;20188;-68
2022/06/23 03:30:31;;;;;;;6.60;4.47;;;15.20;99.90;;;;;;5112599;28;20188;-67
2022/06/23 03:33:06;;;;;;;4.50;3.90;;;15.20;99.90;;;;;;5113469;27;20218;-66
2022/06/23 03:35:41;;;;;;;5.60;4.30;;;15.30;99.90;;;;;;5125179;27;20195;-67
2022/06/23 03:38:15;;;;;;;5.33;4.40;;;15.30;99.90;;;;;;5132802;27;20281;-66
2022/06/23 03:43:43;;;;;;;5.10;3.93;;;15.40;99.90;;;;;;5132949;27;20721;-67
2022/06/23 03:46:19;;;;;;;5.70;3.80;;;15.40;99.90;;;;;;5123527;27;20632;-66
2022/06/23 03:48:52;;;;;;;11.13;4.40;;;15.40;99.90;;;;;;5130707;27;20209;-67
2022/06/23 03:51:22;;;;;;;9.07;4.20;;;15.50;99.90;;;;;;5092193;28;20188;-68
2022/06/23 03:53:56;;;;;;;5.57;4.00;;;15.50;99.90;;;;;;5091627;28;20303;-68
2022/06/23 03:56:26;;;;;;;7.70;4.13;;;15.60;99.90;;;;;;5094880;28;20622;-66
2022/06/23 03:58:59;;;;;;;5.30;3.80;;;15.60;99.90;;;;;;5109370;28;20286;-67
2022/06/23 04:01:33;;;;;;;8.03;4.03;;;15.70;99.90;;;;;;5111837;28;20188;-67
2022/06/23 04:04:05;;;;;;;5.87;3.87;;;15.70;99.90;;;;;;5110703;28;20810;-68
2022/06/23 04:06:36;;;;;;;6.63;3.83;;;15.70;99.90;;;;;;5112069;28;20192;-67
2022/06/23 04:09:08;;;;;;;7.27;4.07;;;15.70;99.90;;;;;;5111169;28;20213;-65
2022/06/23 04:11:47;;;;;;;6.43;4.00;;;15.80;99.90;;;;;;5123809;28;20209;-66
2022/06/23 04:14:26;;;;;;;7.40;3.80;;;15.70;99.90;;;;;;5111730;28;20310;-66
2022/06/23 04:17:04;;;;;;;6.07;3.80;;;15.80;99.90;;;;;;5111534;28;20183;-67
2022/06/23 04:19:33;;;;;;;5.57;3.90;;;15.80;99.90;;;;;;5111562;28;20325;-67
2022/06/23 04:22:06;;;;;;;9.03;4.07;;;15.80;99.90;;;;;;5117293;28;20201;-68
2022/06/23 04:24:35;;;;;;;7.53;4.50;;;15.80;99.90;;;;;;5132371;28;20195;-68
2022/06/23 04:27:10;;;;;;;5.50;3.90;;;15.80;99.90;;;;;;5132123;28;20202;-66
2022/06/23 04:29:39;;;;;;;6.50;3.80;;;15.80;99.90;;;;;;5132634;27;20207;-66
2022/06/23 04:32:09;;;;;;;12.47;4.00;;;15.90;99.90;;;;;;5094140;28;20235;-67
2022/06/23 04:34:47;;;;;;;4.77;3.73;;;15.90;99.90;;;;;;5101095;28;20673;-67
2022/06/23 04:37:25;;;;;;;9.93;4.47;;;15.90;99.90;;;;;;5109310;28;20200;-69
2022/06/23 04:40:00;;;;;;;6.23;4.10;;;16.00;99.90;;;;;;5110529;28;20192;-67
2022/06/23 04:42:28;;;;;;;6.73;4.00;;;16.00;99.90;;;;;;5110980;28;20199;-67
2022/06/23 04:45:17;;;;;;;4.53;3.67;;;16.00;99.90;;;;;;5119554;28;20291;-67
2022/06/23 04:47:45;;;;;;;9.43;4.47;;;16.00;99.90;;;;;;5101710;28;20204;-67
2022/06/23 04:50:31;;;;;;;6.57;4.23;;;16.00;99.90;;;;;;5111591;28;20200;-67
2022/06/23 04:53:00;;;;;;;5.07;4.00;;;16.00;99.90;;;;;;5090956;28;20210;-67
2022/06/23 04:55:29;;;;;;;6.53;3.77;;;16.10;99.90;;;;;;5094531;28;20566;-67
2022/06/23 04:58:03;;;;;;;6.30;4.10;;;16.10;99.90;;;;;;5111210;28;20218;-68
2022/06/23 05:00:38;;;;;;;6.73;3.47;;;16.10;99.90;;;;;;5111234;28;20191;-67
2022/06/23 05:03:14;;;;;;;7.73;3.67;;;16.20;99.90;;;;;;5111179;28;20192;-68
2022/06/23 05:05:43;;;;;;;11.30;4.47;;;16.20;99.90;;;;;;5111371;28;20279;-65
2022/06/23 05:08:18;;;;;;;6.50;4.23;;;16.20;99.90;;;;;;5119842;28;20209;-66
2022/06/23 05:10:49;;;;;;;6.23;4.03;;;16.20;99.90;;;;;;5111947;28;20206;-67
2022/06/23 05:13:20;;;;;;;6.00;3.70;;;16.20;99.90;;;;;;5111131;28;20220;-67
2022/06/23 05:15:51;;;;;;;6.63;3.47;;;16.20;99.90;;;;;;5110903;28;20678;-66
2022/06/23 05:18:23;;;;;;;11.37;4.07;;;16.30;99.90;;;;;;5113862;28;20203;-67
2022/06/23 05:20:58;;;;;;;5.37;4.00;;;16.30;99.90;;;;;;5126791;27;20281;-68
2022/06/23 05:23:28;;;;;;;6.10;3.67;;;16.40;99.90;;;;;;5134792;27;20668;-66
2022/06/23 05:26:03;;;;;;;7.27;3.90;;;16.50;99.90;;;;;;5135109;27;20211;-70
2022/06/23 05:28:35;;;;;;;4.57;3.50;;;16.50;99.90;;;;;;5135752;27;20580;-68
2022/06/23 05:31:04;;;;;;;7.30;4.00;;;16.60;99.90;;;;;;5124331;27;20203;-68
2022/06/23 05:33:35;;;;;;;7.03;3.83;;;16.60;99.90;;;;;;5116479;27;20227;-66
2022/06/23 05:36:06;;;;;;;6.70;3.77;;;16.60;99.90;;;;;;5114141;28;20287;-69
2022/06/23 05:38:38;;;;;;;5.37;4.03;;;16.60;99.90;;;;;;5098855;28;20700;-68
2022/06/23 05:41:13;;;;;;;6.83;4.30;;;16.60;99.90;;;;;;5101127;27;20571;-67
2022/06/23 05:43:41;;;;;;;6.97;3.57;;;16.70;99.90;;;;;;5094226;28;20252;-66
2022/06/23 05:46:17;;;;;;;5.47;4.10;;;16.70;99.90;;;;;;5106963;28;20201;-67
2022/06/23 05:48:46;;;;;;;6.50;4.03;;;16.70;99.90;;;;;;5113372;28;20657;-70
2022/06/23 05:51:20;;;;;;;5.23;3.80;;;16.70;99.90;;;;;;5108475;27;20209;-68
2022/06/23 05:53:57;;;;;;;4.67;3.60;;;16.70;99.90;;;;;;5134879;27;20207;-67
2022/06/23 05:56:29;;;;;;;6.90;3.73;;;16.70;99.90;;;;;;5135093;27;20657;-67
2022/06/23 05:59:02;;;;;;;10.13;4.33;;;16.80;99.90;;;;;;5106051;27;20214;-68
2022/06/23 06:01:34;;;;;;;6.53;3.93;;;16.80;99.90;;;;;;5114334;28;20629;-67
2022/06/23 06:04:12;;;;;;;7.90;4.17;;;16.80;99.90;;;;;;5119882;27;20237;-66
2022/06/23 06:06:41;;;;;;;5.63;4.03;;;16.90;99.90;;;;;;5133481;27;20641;-66
2022/06/23 06:11:59;;;;;;;10.60;4.73;;;17.10;99.90;;;;;;5093436;28;20184;-66
2022/06/23 06:14:30;;;;;;;6.20;3.80;;;17.30;99.90;;;;;;5101387;28;20609;-68
2022/06/23 06:16:59;;;;;;;9.30;4.27;;;17.40;99.90;;;;;;5128765;27;20238;-68
2022/06/23 06:19:29;;;;;;;6.00;3.60;;;17.60;99.90;;;;;;5134344;27;20289;-67
2022/06/23 06:22:06;;;;;;;6.13;3.77;;;17.70;99.90;;;;;;5134187;27;20200;-66
2022/06/23 06:24:36;;;;;;;6.33;4.17;;;17.80;99.90;;;;;;5115783;27;20192;-67
2022/06/23 06:27:08;;;;;;;4.37;3.60;;;17.90;99.90;;;;;;5093571;28;20554;-67
2022/06/23 06:29:38;;;;;;;6.50;3.60;;;18.00;99.90;;;;;;5132414;27;20206;-66
2022/06/23 06:32:17;;;;;;;6.00;3.87;;;18.10;99.90;;;;;;5133891;27;20290;-69
2022/06/23 06:34:48;;;;;;;8.20;3.87;;;18.20;99.90;;;;;;5105043;27;20296;-66
2022/06/23 06:37:18;;;;;;;10.00;4.07;;;18.30;99.90;;;;;;5112555;28;20214;-67
2022/06/23 06:39:49;;;;;;;8.00;3.60;;;18.40;99.90;;;;;;5115357;27;20197;-67
2022/06/23 06:42:20;;;;;;;8.57;3.93;;;18.40;99.90;;;;;;5133903;27;20191;-67
2022/06/23 06:44:50;;;;;;;5.33;3.50;;;18.50;99.90;;;;;;5129506;27;20295;-67
2022/06/23 06:47:20;;;;;;;8.43;3.60;;;18.50;99.90;;;;;;5113444;28;20555;-67
2022/06/23 06:49:47;;;;;;;4.93;3.70;;;18.50;99.90;;;;;;5112916;28;20196;-69
2022/06/23 06:52:16;;;;;;;8.63;4.00;;;18.60;99.90;;;;;;5112565;28;20202;-67
2022/06/23 06:54:48;;;;;;;7.10;3.70;;;18.60;99.90;;;;;;5111447;28;20273;-66
2022/06/23 06:57:21;;;;;;;6.37;3.43;;;18.60;99.90;;;;;;5113374;28;20209;-68
2022/06/23 06:59:56;;;;;;;8.17;4.10;;;18.60;99.90;;;;;;5113030;28;20198;-68
2022/06/23 07:02:29;;;;;;;8.43;3.73;;;18.50;99.90;;;;;;5113012;28;20282;-67
2022/06/23 07:05:02;;;;;;;6.47;3.83;;;18.60;99.90;;;;;;5116035;27;20278;-66
2022/06/23 07:07:37;;;;;;;6.47;4.23;;;18.60;99.90;;;;;;5107313;28;20215;-68
2022/06/23 07:10:13;;;;;;;9.37;4.47;;;18.70;99.90;;;;;;5104536;28;20577;-68
2022/06/23 07:12:48;;;;;;;9.27;3.90;;;18.80;99.90;;;;;;5112915;28;20194;-67
2022/06/23 07:15:25;;;;;;;5.80;3.53;;;18.80;99.90;;;;;;5112860;28;20281;-68
2022/06/23 07:17:58;;;;;;;6.83;3.50;;;18.80;99.90;;;;;;5092435;28;20196;-66
2022/06/23 07:20:29;;;;;;;7.27;4.13;;;18.80;99.90;;;;;;5103412;28;20239;-68
2022/06/23 07:23:03;;;;;;;4.93;3.40;;;18.70;99.90;;;;;;5112886;28;20541;-67
2022/06/23 07:25:35;;;;;;;5.47;3.97;;;18.70;99.90;;;;;;5112629;28;20727;-68
2022/06/23 07:28:07;;;;;;;4.47;3.30;;;18.70;99.90;;;;;;5109484;27;20200;-70
2022/06/23 07:30:38;;;;;;;7.87;4.67;;;18.70;99.90;;;;;;5133130;27;20242;-67
2022/06/23 07:33:11;;;;;;;5.83;3.60;;;18.70;99.90;;;;;;5133030;27;20222;-66
2022/06/23 07:35:43;;;;;;;4.83;3.47;;;18.80;99.90;;;;;;5132672;27;20216;-67
2022/06/23 07:38:17;;;;;;;8.63;3.50;;;18.80;99.90;;;;;;5108512;27;20205;-66
2022/06/23 07:40:52;;;;;;;6.33;3.80;;;18.90;99.90;;;;;;5112641;27;20237;-67
2022/06/23 07:43:41;;;;;;;7.97;3.57;;;18.90;99.90;;;;;;5115065;27;20540;-66
2022/06/23 07:46:08;;;;;;;4.67;3.80;;;19.10;99.90;;;;;;5069100;28;20206;-67
2022/06/23 07:48:37;;;;;;;6.80;3.70;;;19.30;99.90;;;;;;5069111;28;20858;-70
2022/06/23 07:51:06;;;;;;;6.37;3.83;;;19.50;99.90;;;;;;5081335;28;20209;-69
2022/06/23 07:53:37;;;;;;;6.30;3.20;;;19.60;99.90;;;;;;5101990;28;20218;-68
2022/06/23 07:56:05;;;;;;;14.80;4.00;;;19.80;99.90;;;;;;5104761;28;20234;-68
2022/06/23 07:58:36;;;;;;;5.53;4.00;;;19.90;99.90;;;;;;5088904;28;20247;-68
2022/06/23 08:01:09;;;;;;;4.40;3.20;;;20.00;99.90;;;;;;5075409;28;20287;-67
2022/06/23 08:03:41;;;;;;;7.20;3.70;;;20.10;99.90;;;;;;5093857;28;20227;-68
2022/06/23 08:06:13;;;;;;;5.73;3.70;;;20.30;99.90;;;;;;5117350;27;20201;-67
2022/06/23 08:08:45;;;;;;;7.43;4.57;;;20.30;99.90;;;;;;5112047;28;20615;-66
2022/06/23 08:14:15;;;;;;;6.63;3.27;;;20.50;99.90;;;;;;5066959;28;20305;-67
2022/06/23 08:16:49;;;;;;;5.10;2.93;;;20.60;99.90;;;;;;5081953;28;20208;-68
2022/06/23 08:19:27;;;;;;;9.33;3.83;;;20.60;99.90;;;;;;5102914;28;20187;-66
2022/06/23 08:22:00;;;;;;;8.73;3.90;;;20.60;99.90;;;;;;5111764;28;20656;-68
2022/06/23 08:24:28;;;;;;;5.50;3.10;;;20.50;99.90;;;;;;5111641;28;20647;-66
2022/06/23 08:26:59;;;;;;;5.23;3.60;;;20.50;99.90;;;;;;5109832;28;20210;-67
2022/06/23 08:29:31;;;;;;;7.03;3.20;;;20.40;99.90;;;;;;5111922;28;20210;-67
2022/06/23 08:32:00;;;;;;;8.77;3.40;;;20.30;99.90;;;;;;5112266;28;20564;-68
2022/06/23 08:34:27;;;;;;;4.60;3.37;;;20.30;99.90;;;;;;5111481;28;20692;-67
2022/06/23 08:36:58;;;;;;;9.00;3.60;;;20.30;99.90;;;;;;5102204;28;20300;-67
2022/06/23 08:39:32;;;;;;;5.40;3.50;;;20.40;99.90;;;;;;5111909;28;20548;-66
2022/06/23 08:42:13;;;;;;;5.43;2.90;;;20.40;99.90;;;;;;5111637;28;20566;-67
2022/06/23 08:44:46;;;;;;;6.23;3.00;;;20.50;99.90;;;;;;5111881;28;20580;-66
2022/06/23 08:47:22;;;;;;;6.67;3.00;;;20.50;99.90;;;;;;5113222;28;20230;-68
2022/06/23 08:49:55;;;;;;;6.87;3.53;;;20.40;99.90;;;;;;5098673;28;20253;-69
2022/06/23 08:52:31;;;;;;;7.83;3.50;;;20.40;99.90;;;;;;5110862;28;20201;-68
2022/06/23 08:55:03;;;;;;;4.20;3.33;;;20.40;99.90;;;;;;5118560;27;20251;-67
2022/06/23 08:57:37;;;;;;;5.77;2.97;;;20.40;99.90;;;;;;5117646;27;20718;-68
2022/06/23 09:00:10;;;;;;;7.07;2.90;;;20.50;99.90;;;;;;5131346;27;20202;-67
2022/06/23 09:02:43;;;;;;;6.70;3.53;;;20.60;99.90;;;;;;5115457;28;20216;-67
2022/06/23 09:05:16;;;;;;;8.70;3.70;;;20.60;99.90;;;;;;5129592;27;20291;-71
2022/06/23 09:07:51;;;;;;;6.57;3.17;;;20.70;99.90;;;;;;5123866;27;20191;-67
2022/06/23 09:10:31;;;;;;;3.53;3.13;;;20.60;99.90;;;;;;5113440;27;20205;-67
2022/06/23 09:13:09;;;;;;;6.43;3.30;;;20.50;99.90;;;;;;5118524;27;20567;-68
2022/06/23 09:16:01;;;;;;;6.70;3.20;;;20.50;99.90;;;;;;5110130;27;20211;-67
2022/06/23 09:18:52;;;;;;;6.47;3.50;;;20.50;99.90;;;;;;5126332;27;20203;-68
2022/06/23 09:21:31;;;;;;;4.63;3.37;;;20.60;99.90;;;;;;5115331;28;20270;-67
2022/06/23 09:24:20;;;;;;;6.40;3.30;;;20.60;99.90;;;;;;5123642;27;20202;-67
2022/06/23 09:26:55;;;;;;;4.10;3.03;;;20.60;99.90;;;;;;5135910;27;20193;-67
2022/06/23 09:29:33;;;;;;;7.07;3.27;;;20.70;99.90;;;;;;5135021;27;20189;-68
2022/06/23 09:32:06;;;;;;;9.53;3.20;;;20.70;99.90;;;;;;5094811;28;20281;-69
2022/06/23 09:34:55;;;;;;;7.20;3.03;;;20.70;99.90;;;;;;5113661;28;20211;-68
2022/06/23 09:37:53;;;;;;;5.93;3.27;;;20.70;99.90;;;;;;5114892;28;20188;-67
2022/06/23 09:40:43;;;;;;;8.50;3.40;;;20.80;99.90;;;;;;5108757;28;20237;-68
2022/06/23 09:43:57;;;;;;;5.20;2.97;;;21.00;99.90;;;;;;5114724;28;20214;-68
2022/06/23 09:46:50;;;;;;;2.93;2.67;;;21.10;99.90;;;;;;5129365;27;20212;-67
2022/06/23 09:49:45;;;;;;;7.83;3.30;;;21.20;99.90;;;;;;5094163;28;20192;-68
2022/06/23 09:53:07;;;;;;;9.40;3.30;;;21.30;99.90;;;;;;5093948;28;20194;-67
2022/06/23 09:56:07;;;;;;;4.90;2.90;;;21.30;99.90;;;;;;5094412;28;20224;-67
2022/06/23 09:58:59;;;;;;;11.63;3.53;;;21.40;99.90;;;;;;5099547;28;20290;-68
2022/06/23 10:01:43;;;;;;;4.60;3.40;;;21.50;99.90;;;;;;5094163;28;20189;-66
2022/06/23 10:04:21;;;;;;;3.53;2.67;;;21.60;99.90;;;;;;5122191;27;20655;-66
2022/06/23 10:07:14;;;;;;;8.67;2.97;;;21.60;99.90;;;;;;5135066;27;20183;-67
2022/06/23 10:09:59;;;;;;;6.10;2.70;;;21.60;99.90;;;;;;5130553;27;20209;-72
2022/06/23 10:12:53;;;;;;;3.93;2.57;;;21.50;99.90;;;;;;5134824;27;20191;-67
2022/06/23 10:15:35;;;;;;;5.00;2.60;;;21.50;99.90;;;;;;5131865;27;20218;-68
2022/06/23 10:18:35;;;;;;;2.90;2.40;;;21.50;99.90;;;;;;5134523;27;20231;-67
2022/06/23 10:21:16;;;;;;;4.23;3.07;;;21.40;99.90;;;;;;5119288;27;20328;-67
2022/06/23 10:23:55;;;;;;;6.40;2.70;;;21.50;99.90;;;;;;5129521;27;20219;-65
2022/06/23 10:26:52;;;;;;;5.93;2.70;;;21.60;99.90;;;;;;5116281;27;20226;-66
2022/06/23 10:29:50;;;;;;;5.87;2.70;;;21.70;99.90;;;;;;5104882;28;20559;-66
2022/06/23 10:32:42;;;;;;;3.37;2.40;;;21.70;99.90;;;;;;5113695;28;20268;-66
2022/06/23 10:35:20;;;;;;;9.90;2.80;;;21.80;99.90;;;;;;5110413;28;20312;-69
2022/06/23 10:38:05;;;;;;;5.80;2.60;;;21.80;99.90;;;;;;5117822;27;20681;-70
2022/06/23 10:41:00;;;;;;;4.63;2.70;;;21.80;99.90;;;;;;5116953;27;20199;-65
2022/06/23 10:44:02;;;;;;;5.80;2.70;;;21.80;99.90;;;;;;5134433;27;20610;-66
2022/06/23 10:46:35;;;;;;;4.73;2.50;;;21.90;99.90;;;;;;5063253;28;20203;-66
2022/06/23 10:49:26;;;;;;;5.20;2.63;;;22.10;99.90;;;;;;5113511;28;20202;-67
2022/06/23 10:52:29;;;;;;;3.83;2.57;;;22.30;99.90;;;;;;5113165;27;20958;-67
2022/06/23 10:55:23;;;;;;;5.67;2.93;;;22.50;99.90;;;;;;5112510;28;20212;-67
2022/06/23 10:58:25;;;;;;;4.63;2.70;;;22.70;99.90;;;;;;5102001;28;20187;-65
2022/06/23 11:01:02;;;;;;;8.40;2.83;;;22.80;99.90;;;;;;5113630;28;20194;-66
2022/06/23 11:03:51;;;;;;;3.53;2.17;;;22.80;99.90;;;;;;5128194;27;20208;-68
2022/06/23 11:06:46;;;;;;;3.67;2.50;;;22.70;99.90;;;;;;5098256;28;20206;-68
2022/06/23 11:09:34;;;;;;;5.10;2.53;;;22.50;99.90;;;;;;5092892;28;20202;-66
2022/06/23 11:12:14;;;;;;;4.33;2.70;;;22.50;99.90;;;;;;5099815;28;20572;-72
2022/06/23 11:14:54;;;;;;;4.93;2.50;;;22.40;99.90;;;;;;5103292;28;20665;-67
2022/06/23 11:17:29;;;;;;;5.07;2.60;;;22.30;99.90;;;;;;5133357;27;20200;-67
2022/06/23 11:20:14;;;;;;;6.13;3.30;;;22.20;99.90;;;;;;5133009;27;20231;-67
2022/06/23 11:22:51;;;;;;;6.77;3.00;;;22.10;99.90;;;;;;5132871;27;20281;-67
2022/06/23 11:25:36;;;;;;;4.23;3.03;;;22.00;99.90;;;;;;5120912;27;20562;-67
2022/06/23 11:28:09;;;;;;;8.10;2.73;;;22.00;99.90;;;;;;5112600;28;20252;-68
2022/06/23 11:30:51;;;;;;;3.83;3.03;;;21.90;99.90;;;;;;5112999;28;20695;-69
2022/06/23 11:33:36;;;;;;;13.87;3.50;;;21.80;99.90;;;;;;5112903;28;20314;-65
2022/06/23 11:36:15;;;;;;;5.63;3.07;;;21.70;99.90;;;;;;5124006;27;20254;-68
2022/06/23 11:39:03;;;;;;;4.77;2.70;;;21.70;99.90;;;;;;5114649;27;20191;-67
2022/06/23 11:41:52;;;;;;;5.97;3.30;;;21.70;99.90;;;;;;5110025;27;20218;-67
2022/06/23 11:44:35;;;;;;;9.07;2.83;;;21.70;99.90;;;;;;5110857;27;20652;-67
2022/06/23 11:47:14;;;;;;;6.60;3.27;;;21.60;99.90;;;;;;5108669;28;20191;-68
2022/06/23 11:49:52;;;;;;;6.27;3.33;;;21.50;99.90;;;;;;5109849;28;20203;-66
2022/06/23 11:52:37;;;;;;;4.73;2.90;;;21.50;99.90;;;;;;5091955;28;20284;-67
2022/06/23 11:55:26;;;;;;;9.57;2.87;;;21.50;99.90;;;;;;5091890;28;20212;-67
2022/06/23 11:58:14;;;;;;;6.13;2.90;;;21.50;99.90;;;;;;5092060;28;20648;-66
2022/06/23 12:00:53;;;;;;;4.17;2.80;;;21.60;99.90;;;;;;5107735;27;20199;-68
2022/06/23 12:03:41;;;;;;;3.67;2.80;;;21.60;99.90;;;;;;5124351;27;20214;-66
2022/06/23 12:06:22;;;;;;;4.57;2.90;;;21.60;99.90;;;;;;5112294;28;20211;-66
2022/06/23 12:08:58;;;;;;;5.90;3.13;;;21.60;99.90;;;;;;5116670;28;20203;-67
2022/06/23 12:11:26;;;;;;;3.63;2.80;;;21.50;99.90;;;;;;5112222;28;20191;-65
2022/06/23 12:13:54;;;;;;;5.43;2.83;;;21.50;99.90;;;;;;5111811;28;20208;-66
2022/06/23 12:16:21;;;;;;;4.17;2.77;;;21.40;99.90;;;;;;5111749;28;20717;-68
2022/06/23 12:18:51;;;;;;;5.23;2.63;;;21.40;99.90;;;;;;5109828;28;20239;-66
2022/06/23 12:21:29;;;;;;;9.20;3.10;;;21.30;99.90;;;;;;5110542;28;20737;-67
2022/06/23 12:24:03;;;;;;;3.47;2.50;;;21.30;99.90;;;;;;5111422;28;20667;-67
2022/06/23 12:26:35;;;;;;;3.50;2.77;;;21.30;99.90;;;;;;5125769;27;20195;-66
2022/06/23 12:29:10;;;;;;;3.70;2.80;;;21.30;99.90;;;;;;5115900;28;20194;-67
2022/06/23 12:31:44;;;;;;;3.97;2.87;;;21.30;99.90;;;;;;5127921;27;20251;-66
2022/06/23 12:34:23;;;;;;;7.70;4.40;;;21.30;99.90;;;;;;5128683;27;20187;-66
2022/06/23 12:37:03;;;;;;;4.27;2.67;;;21.40;99.90;;;;;;5113682;28;20219;-66
2022/06/23 12:39:36;;;;;;;3.17;2.83;;;21.40;99.90;;;;;;5115015;28;20203;-67
2022/06/23 12:42:10;;;;;;;3.43;2.60;;;21.40;99.90;;;;;;5103630;28;20210;-66
2022/06/23 12:44:46;;;;;;;5.30;3.27;;;21.40;99.90;;;;;;5108912;28;20203;-66
2022/06/23 12:47:25;;;;;;;5.93;3.17;;;21.40;99.90;;;;;;5113891;28;20281;-67
2022/06/23 12:50:18;;;;;;;4.57;2.73;;;21.40;99.90;;;;;;5123218;27;20199;-67
2022/06/23 12:52:54;;;;;;;3.67;2.67;;;21.30;99.90;;;;;;5113967;27;20706;-68
2022/06/23 12:55:36;;;;;;;6.07;3.10;;;21.30;99.90;;;;;;5128405;27;20226;-68
2022/06/23 12:58:20;;;;;;;7.90;2.73;;;21.40;99.90;;;;;;5117868;27;20290;-66
2022/06/23 13:01:01;;;;;;;4.93;2.73;;;21.40;99.90;;;;;;5114799;28;20202;-67
2022/06/23 13:03:33;;;;;;;6.47;2.70;;;21.40;99.90;;;;;;5113370;28;20188;-66
2022/06/23 13:06:14;;;;;;;9.33;2.80;;;21.50;99.90;;;;;;5115554;28;20192;-65
2022/06/23 13:08:56;;;;;;;6.00;2.90;;;21.50;99.90;;;;;;5115478;28;20278;-65
2022/06/23 13:11:30;;;;;;;5.13;2.73;;;21.60;99.90;;;;;;5113652;28;20660;-67
2022/06/23 13:14:12;;;;;;;6.70;2.70;;;21.60;99.90;;;;;;5115600;28;20226;-66
2022/06/23 13:16:43;;;;;;;4.93;2.60;;;21.60;99.90;;;;;;5114707;28;20207;-65
2022/06/23 13:19:17;;;;;;;3.27;2.43;;;21.60;99.90;;;;;;5115256;28;20691;-68
2022/06/23 13:21:44;;;;;;;3.23;2.60;;;21.60;99.90;;;;;;5119888;27;20204;-68
2022/06/23 13:24:16;;;;;;;5.37;2.63;;;21.60;99.90;;;;;;5122922;27;20203;-67
2022/06/23 13:26:51;;;;;;;8.87;5.37;;;21.70;99.90;;;;;;5133779;27;20210;-67
2022/06/23 13:29:22;;;;;;;3.87;2.80;;;21.80;99.90;;;;;;5117927;27;20195;-66
2022/06/23 13:31:53;;;;;;;3.97;2.73;;;21.90;99.90;;;;;;5114985;28;20556;-67
2022/06/23 13:34:27;;;;;;;5.70;2.47;;;22.00;99.90;;;;;;5113467;28;20203;-68
2022/06/23 13:36:59;;;;;;;7.77;2.70;;;22.00;99.90;;;;;;5120284;27;20568;-66
2022/06/23 13:39:32;;;;;;;3.93;2.77;;;22.10;99.90;;;;;;5134555;27;20297;-66
2022/06/23 13:42:04;;;;;;;5.53;2.93;;;22.20;99.90;;;;;;5118992;27;20197;-65